Flight Track Log - Related Links

Times and Time Zones

All times are in EDT time to prevent confusion due to time zone crossing. See the N502QS flight status page for this flight to view local times or setup timezone preferences in your user account.

Time Position Orientation Groundspeed Altitude Reporting Facility
EDT Latitude Longitude Course Direction KTS MPH feet Rate Location/Type
Sun 01:08:44 PM 44.8356 -69.0853 269° West 265 305 10,300  Level Boston Center
Sun 01:09:44 PM 44.8331 -69.2142 268° West 297 342 12,500 2,300 Climbing Boston Center
Sun 01:10:44 PM 44.8306 -69.3519 269° West 333 383 14,900 2,900 Climbing Boston Center
Sun 01:11:44 PM 44.8300 -69.4925 270° West 351 404 18,300 3,450 Climbing Boston Center
Sun 01:12:00 PM 44.8167 -69.7266 270° West  Level FlightAware Approximate
Sun 01:12:44 PM 44.8258 -69.6567 268° West 376 433 21,800  Level Boston Center
Sun 01:13:56 PM 44.8231 -69.8061 269° West 388 447 25,100 2,955 Climbing Boston Center
Sun 01:14:56 PM 44.8186 -69.9878 268° West 388 447 28,300 2,750 Climbing Boston Center
Sun 01:15:56 PM 44.8156 -70.1458 268° West 393 452 30,600 2,100 Climbing Boston Center
Sun 01:16:56 PM 44.8125 -70.3100 269° West 406 467 32,500 1,900 Climbing Boston Center
Sun 01:17:56 PM 44.8069 -70.4711 267° West 411 473 34,400 1,750 Climbing Boston Center
Sun 01:18:56 PM 44.8053 -70.6086 269° West 411 473 36,000 1,900 Climbing Boston Center
Sun 01:19:56 PM 44.7992 -70.7639 267° West 406 467 38,200 2,050 Climbing Boston Center
Sun 01:20:56 PM 44.7950 -70.9161 268° West 400 460 40,100 1,400 Climbing Boston Center
Sun 01:21:56 PM 44.7886 -71.0683 267° West 400 460 41,000 950 Climbing Boston Center
Sun 01:22:56 PM 44.7819 -71.2264 267° West 405 466 42,000 800 Climbing Boston Center
Sun 01:23:56 PM 44.7772 -71.3875 268° West 410 472 42,600 500 Climbing Boston Center
Sun 01:24:56 PM 44.7642 -71.5631 264° West 416 479 43,000 150 Climbing Boston Center
Sun 01:25:56 PM 44.7172 -71.7097 246° West 411 473 42,900 150 Descending Boston Center
Sun 01:26:56 PM 44.6725 -71.8622 248° West 417 480 43,300 700 Climbing Boston Center
Sun 01:27:56 PM 44.6250 -72.0083 245° Southwest 417 480 44,300 1,000 Climbing Boston Center
Sun 01:28:56 PM 44.5797 -72.1544 247° West 417 480 45,300 850 Climbing Boston Center
Sun 01:29:56 PM 44.5342 -72.2944 246° West 412 474 46,000 600 Climbing Boston Center
Sun 01:30:56 PM 44.4883 -72.4400 246° West 412 474 46,500 500 Climbing Boston Center
Sun 01:31:56 PM 44.4425 -72.5883 247° West 412 474 47,000 200 Climbing Boston Center
Sun 01:32:56 PM 44.3942 -72.7336 245° Southwest 412 474 46,900 -50 Descending Boston Center
Sun 01:33:56 PM 44.3544 -72.8522 245° Southwest 424 488 46,900  Level Boston Center
Sun 01:34:56 PM 44.3017 -73.0172 246° West 424 488 46,900  Level Boston Center
Sun 01:35:56 PM 44.2528 -73.1675 246° West 424 488 46,900  Level Boston Center
Sun 01:36:56 PM 44.2039 -73.3147 245° Southwest 424 488 46,900  Level Boston Center
Sun 01:37:56 PM 44.1547 -73.4644 245° Southwest 424 488 46,900  Level Boston Center
Sun 01:38:56 PM 44.1033 -73.6167 245° Southwest 424 488 46,900  Level Boston Center
Sun 01:39:56 PM 44.0536 -73.7631 245° Southwest 429 494 46,900  Level Boston Center
Sun 01:40:56 PM 44.0061 -73.9092 246° West 429 494 46,900 -50 Level Boston Center
Sun 01:41:56 PM 43.9561 -74.0522 244° Southwest 424 488 46,800 -100 Descending Boston Center
Sun 01:42:56 PM 43.9039 -74.2122 246° West 416 479 46,700 100 Descending Boston Center
Sun 01:43:56 PM 43.8558 -74.3547 245° Southwest 421 484 47,000 150 Climbing Boston Center
Sun 01:44:56 PM 43.8072 -74.5028 246° West 421 484 47,000  Level Boston Center
Sun 01:45:56 PM 43.7567 -74.6478 244° Southwest 421 484 47,000  Level Boston Center
Sun 01:46:56 PM 43.7081 -74.7897 245° Southwest 421 484 47,000  Level Boston Center
Sun 01:47:56 PM 43.6569 -74.9339 244° Southwest 421 484 47,000  Level Boston Center
Sun 01:48:56 PM 43.6189 -75.0528 246° West 421 484 47,000  Level Boston Center
Sun 01:50:08 PM 43.5606 -75.2250 245° Southwest 421 484 47,000  Level Boston Center
Sun 01:51:08 PM 43.5044 -75.3914 245° Southwest 428 493 47,000  Level Boston Center
Sun 01:52:08 PM 43.4506 -75.5375 243° Southwest 428 493 47,000  Level Boston Center
Sun 01:53:08 PM 43.3986 -75.6778 243° Southwest 428 493 47,000  Level Boston Center
Sun 01:54:08 PM 43.3467 -75.8181 243° Southwest 423 487 47,000  Level Boston Center
Sun 01:55:08 PM 43.2942 -75.9633 244° Southwest 423 487 47,000  Level Boston Center
Sun 01:57:32 PM 43.1650 -76.3075 243° Southwest 421 484 47,000  Level Cleveland Center
Sun 01:58:32 PM 43.1139 -76.4533 244° Southwest 421 484 47,000  Level Cleveland Center
Sun 01:59:32 PM 43.0606 -76.5961 243° Southwest 421 484 47,000  Level Cleveland Center
Sun 02:00:32 PM 43.0011 -76.7506 242° Southwest 421 484 47,000  Level Cleveland Center
Sun 02:01:32 PM 42.9475 -76.8956 243° Southwest 421 484 47,000  Level Cleveland Center
Sun 02:02:32 PM 42.8936 -77.0378 243° Southwest 421 484 47,000  Level Cleveland Center
Sun 02:03:32 PM 42.8458 -77.1847 246° West 426 490 47,000  Level Cleveland Center
Sun 02:04:32 PM 42.7981 -77.3319 246° West 426 490 47,000  Level Cleveland Center
Sun 02:05:32 PM 42.7539 -77.4728 247° West 421 484 47,000  Level Cleveland Center
Sun 02:06:32 PM 42.6992 -77.6083 241° Southwest 427 491 47,000  Level Cleveland Center
Sun 02:07:32 PM 42.6339 -77.7467 237° Southwest 442 509 47,000  Level Cleveland Center
Sun 02:08:32 PM 42.5664 -77.8936 238° Southwest 452 520 47,000  Level Cleveland Center
Sun 02:09:32 PM 42.5028 -78.0258 237° Southwest 452 520 47,000  Level Cleveland Center
Sun 02:10:32 PM 42.4369 -78.1608 237° Southwest 445 512 47,000  Level Cleveland Center
Sun 02:11:32 PM 42.3731 -78.2953 237° Southwest 440 506 47,000  Level Cleveland Center
Sun 02:12:32 PM 42.3089 -78.4325 238° Southwest 440 506 47,000  Level Cleveland Center
Sun 02:13:32 PM 42.2444 -78.5636 236° Southwest 440 506 47,000  Level Cleveland Center
Sun 02:14:32 PM 42.1719 -78.7117 237° Southwest 440 506 47,000  Level Cleveland Center
Sun 02:15:32 PM 42.1053 -78.8453 236° Southwest 440 506 47,000  Level Cleveland Center
Sun 02:16:32 PM 42.0406 -78.9783 237° Southwest 440 506 47,000  Level Cleveland Center
Sun 02:17:32 PM 41.9756 -79.1142 237° Southwest 440 506 47,000  Level Cleveland Center
Sun 02:18:32 PM 41.9144 -79.2356 236° Southwest 440 506 47,000  Level Cleveland Center
Sun 02:19:32 PM 41.8411 -79.3792 236° Southwest 446 513 47,000  Level Cleveland Center
Sun 02:20:32 PM 41.7778 -79.5111 237° Southwest 446 513 47,000  Level Cleveland Center
Sun 02:21:32 PM 41.7225 -79.6206 236° Southwest 446 513 47,000  Level Cleveland Center
Sun 02:22:32 PM 41.6425 -79.7775 236° Southwest 436 502 47,000  Level Cleveland Center
Sun 02:23:32 PM 41.5828 -79.8947 236° Southwest 441 507 47,000  Level Cleveland Center
Sun 02:24:32 PM 41.5083 -80.0369 235° Southwest 441 507 47,000  Level Cleveland Center
Sun 02:25:32 PM 41.4422 -80.1703 237° Southwest 441 507 47,000  Level Cleveland Center
Sun 02:26:32 PM 41.3758 -80.3008 236° Southwest 441 507 47,000  Level Cleveland Center
Sun 02:27:32 PM 41.3033 -80.4311 233° Southwest 441 507 47,000  Level Cleveland Center
Sun 02:28:32 PM 41.2367 -80.5639 236° Southwest 441 507 47,000  Level Cleveland Center
Sun 02:29:32 PM 41.1658 -80.6989 235° Southwest 447 514 47,000  Level Cleveland Center
Sun 02:30:32 PM 41.1072 -80.8175 237° Southwest 442 509 47,000  Level Cleveland Center
Sun 02:31:32 PM 41.0381 -80.9464 235° Southwest 442 509 47,000  Level Cleveland Center
Sun 02:32:32 PM 40.9561 -81.0917 233° Southwest 450 518 47,000  Level Cleveland Center
Sun 02:33:32 PM 40.8867 -81.2231 235° Southwest 450 518 47,000  Level Cleveland Center
Sun 02:34:32 PM 40.8256 -81.3458 237° Southwest 445 512 47,000  Level Cleveland Center
Sun 02:35:32 PM 40.7536 -81.4739 233° Southwest 445 512 47,000  Level Cleveland Center
Sun 02:37:32 PM 40.6144 -81.7375 235° Southwest 439 505 47,000  Level Indianapolis Center
Sun 02:38:34 PM 40.5442 -81.8689 235° Southwest 437 503 47,000  Level Indianapolis Center
Sun 02:39:36 PM 40.4736 -82.0017 235° Southwest 437 503 47,000  Level Indianapolis Center
Sun 02:40:38 PM 40.4050 -82.1353 236° Southwest 437 503 47,000 -677 Level Indianapolis Center
Sun 02:41:40 PM 40.3256 -82.2872 236° Southwest 432 497 45,600 -1,403 Descending Indianapolis Center
Sun 02:42:42 PM 40.2583 -82.4156 236° Southwest 423 487 44,100 -2,177 Descending Indianapolis Center
Sun 02:43:44 PM 40.1986 -82.5306 236° Southwest 425 489 41,100 -3,317 Descending Indianapolis Center
Sun 02:44:45 PM 40.1189 -82.6822 236° Southwest 431 496 37,300 -2,976 Descending Indianapolis Center
Sun 02:45:47 PM 40.0503 -82.8117 235° Southwest 428 493 35,000 -1,597 Descending Indianapolis Center
Sun 02:46:49 PM 39.9811 -82.9414 235° Southwest 431 496 34,000 -484 Descending Indianapolis Center
Sun 02:47:51 PM 39.9108 -83.0719 235° Southwest 435 501 34,000  Level Indianapolis Center
Sun 02:48:53 PM 39.8403 -83.2022 235° Southwest 434 499 34,000 -1,317 Level Indianapolis Center
Sun 02:49:54 PM 39.7681 -83.3328 234° Southwest 434 499 31,300 -1,951 Descending Indianapolis Center
Sun 02:50:56 PM 39.6964 -83.4694 236° Southwest 441 507 30,000 -629 Descending Indianapolis Center
Sun 02:51:58 PM 39.6208 -83.6097 235° Southwest 463 533 30,000 -48 Level Indianapolis Center
Sun 02:53:00 PM 39.5469 -83.7456 235° Southwest 457 526 29,900 -780 Descending Indianapolis Center
Sun 02:54:01 PM 39.4742 -83.8789 235° Southwest 452 520 28,400 -1,463 Descending Indianapolis Center
Sun 02:55:03 PM 39.4022 -84.0106 235° Southwest 443 510 26,900 -1,694 Descending Indianapolis Center
Sun 02:56:05 PM 39.3317 -84.1378 234° Southwest 434 499 24,900 -1,403 Descending Indianapolis Center
Sun 02:57:07 PM 39.2631 -84.2625 235° Southwest 424 488 24,000 -537 Descending Indianapolis Center
Sun 02:58:08 PM 39.1822 -84.4064 234° Southwest 420 483 23,800 -1,024 Descending Indianapolis Center
Sun 02:59:10 PM 39.1142 -84.5289 234° Southwest 418 481 21,900 -1,694 Descending Indianapolis Center
Sun 03:00:12 PM 39.0478 -84.6469 234° Southwest 406 467 20,300 -1,882 Descending Indianapolis Center
Sun 03:00:52 PM 39.0000 -84.7167 229° Southwest 416 479 18,700 -2,122 Descending Cincinnati TRACON
Sun 03:01:34 PM 38.9333 -84.7833 218° Southwest 396 456 17,400 -1,765 Descending Cincinnati TRACON
Sun 03:02:34 PM 38.8500 -84.8667 218° Southwest 390 449 15,700 -1,631 Descending Cincinnati TRACON
Sun 03:03:17 PM 38.7858 -84.8811 190° South 377 434 14,600 -2,038 Descending Indianapolis Center
Sun 03:04:20 PM 38.6878 -84.8406 162° South 370 426 12,100 -2,208 Descending Indianapolis Center
Sun 03:05:22 PM 38.5772 -84.7950 162° South 351 404 10,000 -1,016 Descending Indianapolis Center
Sun 03:06:24 PM 38.5019 -84.7589 159° South 303 349 10,000  Level Indianapolis Center
Sun 03:07:26 PM 38.4403 -84.6908 139° Southeast 292 336 10,000 -823 Level Indianapolis Center
Sun 03:08:28 PM 38.3825 -84.6181 135° Southeast 291 335 8,300 -2,000 Descending Indianapolis Center
Sun 03:09:29 PM 38.3256 -84.5569 140° Southeast 272 313 5,900 -1,610 Descending Indianapolis Center
Sun 03:10:31 PM 38.2758 -84.4992 138° Southeast 253 291 5,000 -1,306 Descending Indianapolis Center
Sun 03:11:33 PM 38.2244 -84.4556 146° Southeast 207 238 3,200 -871 Descending Indianapolis Center
Sun 03:12:35 PM 38.1758 -84.4553 180° South 180 207 3,200  Level Indianapolis Center
Sun 03:13:37 PM 38.1375 -84.4922 217° Southwest 175 201 3,200 -339 Level Indianapolis Center
Sun 03:14:39 PM 38.1025 -84.5336 223° Southwest 173 199 2,500 -726 Descending Indianapolis Center
Sun 03:15:41 PM 38.0681 -84.5711 221° Southwest 170 196 1,700 -774 Descending Indianapolis Center
Sun 03:17:00 PM 38.0368 -84.6086 307° West  Level Estimated
Sun 03:24:00 PM 38.0368 -84.6086 310° West  Level Estimated
Sun 03:25:00 PM 38.0368 -84.6086 310° West  Level Estimated

Login

Don't have an account? Register now (free) for customized features, flight alerts, and more!